sensor_id;sensor_type;location;lat;lon;timestamp;temperature;humidity
19039;DHT22;9652;49.014;12.052;2022-09-17T00:01:16;13.30;77.10
19039;DHT22;9652;49.014;12.052;2022-09-17T00:03:48;13.30;77.30
19039;DHT22;9652;49.014;12.052;2022-09-17T00:06:20;13.30;77.40
19039;DHT22;9652;49.014;12.052;2022-09-17T00:08:48;13.40;77.70
19039;DHT22;9652;49.014;12.052;2022-09-17T00:11:18;13.40;77.90
19039;DHT22;9652;49.014;12.052;2022-09-17T00:13:47;13.40;78.10
19039;DHT22;9652;49.014;12.052;2022-09-17T00:16:22;13.50;78.30
19039;DHT22;9652;49.014;12.052;2022-09-17T00:18:51;13.50;78.10
19039;DHT22;9652;49.014;12.052;2022-09-17T00:21:20;13.60;78.40
19039;DHT22;9652;49.014;12.052;2022-09-17T00:23:48;13.70;78.50
19039;DHT22;9652;49.014;12.052;2022-09-17T00:26:19;13.70;78.70
19039;DHT22;9652;49.014;12.052;2022-09-17T00:28:48;13.80;78.80
19039;DHT22;9652;49.014;12.052;2022-09-17T00:31:16;13.80;78.80
19039;DHT22;9652;49.014;12.052;2022-09-17T00:33:44;13.90;79.00
19039;DHT22;9652;49.014;12.052;2022-09-17T00:36:11;13.90;78.90
19039;DHT22;9652;49.014;12.052;2022-09-17T00:38:39;14.00;78.80
19039;DHT22;9652;49.014;12.052;2022-09-17T00:41:07;14.00;78.70
19039;DHT22;9652;49.014;12.052;2022-09-17T00:43:40;14.10;78.80
19039;DHT22;9652;49.014;12.052;2022-09-17T00:46:17;14.10;78.50
19039;DHT22;9652;49.014;12.052;2022-09-17T00:48:59;14.20;79.00
19039;DHT22;9652;49.014;12.052;2022-09-17T00:51:33;14.20;78.20
19039;DHT22;9652;49.014;12.052;2022-09-17T00:54:06;14.20;77.30
19039;DHT22;9652;49.014;12.052;2022-09-17T00:56:39;14.20;76.90
19039;DHT22;9652;49.014;12.052;2022-09-17T00:59:08;14.20;76.80
19039;DHT22;9652;49.014;12.052;2022-09-17T01:01:35;14.20;76.90
19039;DHT22;9652;49.014;12.052;2022-09-17T01:04:03;14.20;76.80
19039;DHT22;9652;49.014;12.052;2022-09-17T01:06:33;14.20;76.80
19039;DHT22;9652;49.014;12.052;2022-09-17T01:09:18;14.20;76.90
19039;DHT22;9652;49.014;12.052;2022-09-17T01:12:09;14.20;76.80
19039;DHT22;9652;49.014;12.052;2022-09-17T01:14:59;14.20;76.90
19039;DHT22;9652;49.014;12.052;2022-09-17T01:17:38;14.20;76.90
19039;DHT22;9652;49.014;12.052;2022-09-17T01:20:46;14.30;77.20
19039;DHT22;9652;49.014;12.052;2022-09-17T01:27:02;14.30;76.70
19039;DHT22;9652;49.014;12.052;2022-09-17T01:32:53;14.40;77.00
19039;DHT22;9652;49.014;12.052;2022-09-17T01:35:31;14.40;76.70
19039;DHT22;9652;49.014;12.052;2022-09-17T01:38:09;14.50;77.70
19039;DHT22;9652;49.014;12.052;2022-09-17T01:40:46;14.50;76.70
19039;DHT22;9652;49.014;12.052;2022-09-17T01:43:22;14.50;76.90
19039;DHT22;9652;49.014;12.052;2022-09-17T01:45:55;14.50;76.80
19039;DHT22;9652;49.014;12.052;2022-09-17T01:48:31;14.50;76.90
19039;DHT22;9652;49.014;12.052;2022-09-17T01:51:04;14.50;76.70
19039;DHT22;9652;49.014;12.052;2022-09-17T01:53:37;14.60;76.70
19039;DHT22;9652;49.014;12.052;2022-09-17T01:56:14;14.60;76.70
19039;DHT22;9652;49.014;12.052;2022-09-17T01:58:48;14.60;76.60
19039;DHT22;9652;49.014;12.052;2022-09-17T02:01:21;14.60;76.60
19039;DHT22;9652;49.014;12.052;2022-09-17T02:03:53;14.60;76.40
19039;DHT22;9652;49.014;12.052;2022-09-17T02:06:29;14.60;76.30
19039;DHT22;9652;49.014;12.052;2022-09-17T02:09:05;14.60;76.20
19039;DHT22;9652;49.014;12.052;2022-09-17T02:11:38;14.60;76.10
19039;DHT22;9652;49.014;12.052;2022-09-17T02:14:12;14.70;76.20
19039;DHT22;9652;49.014;12.052;2022-09-17T02:16:47;14.60;75.90
19039;DHT22;9652;49.014;12.052;2022-09-17T02:19:21;14.70;76.10
19039;DHT22;9652;49.014;12.052;2022-09-17T02:21:55;14.70;75.60
19039;DHT22;9652;49.014;12.052;2022-09-17T02:24:34;14.70;75.50
19039;DHT22;9652;49.014;12.052;2022-09-17T02:27:12;14.70;75.30
19039;DHT22;9652;49.014;12.052;2022-09-17T02:29:46;14.60;75.00
19039;DHT22;9652;49.014;12.052;2022-09-17T02:32:14;14.60;75.30
19039;DHT22;9652;49.014;12.052;2022-09-17T02:34:42;14.60;75.30
19039;DHT22;9652;49.014;12.052;2022-09-17T02:37:10;14.60;75.20
19039;DHT22;9652;49.014;12.052;2022-09-17T02:39:37;14.60;75.20
19039;DHT22;9652;49.014;12.052;2022-09-17T02:42:13;14.60;75.00
19039;DHT22;9652;49.014;12.052;2022-09-17T02:44:56;14.60;74.70
19039;DHT22;9652;49.014;12.052;2022-09-17T02:47:49;14.60;74.90
19039;DHT22;9652;49.014;12.052;2022-09-17T02:50:33;14.60;74.40
19039;DHT22;9652;49.014;12.052;2022-09-17T02:53:20;14.60;74.80
19039;DHT22;9652;49.014;12.052;2022-09-17T02:56:01;14.60;74.70
19039;DHT22;9652;49.014;12.052;2022-09-17T02:58:41;14.60;74.70
19039;DHT22;9652;49.014;12.052;2022-09-17T03:01:17;14.60;74.70
19039;DHT22;9652;49.014;12.052;2022-09-17T03:03:49;14.60;74.50
19039;DHT22;9652;49.014;12.052;2022-09-17T03:06:20;14.80;74.80
19039;DHT22;9652;49.014;12.052;2022-09-17T03:08:47;14.70;74.60
19039;DHT22;9652;49.014;12.052;2022-09-17T03:11:14;14.60;74.50
19039;DHT22;9652;49.014;12.052;2022-09-17T03:13:41;14.60;74.40
19039;DHT22;9652;49.014;12.052;2022-09-17T03:16:08;14.60;74.30
19039;DHT22;9652;49.014;12.052;2022-09-17T03:18:36;14.60;74.30
19039;DHT22;9652;49.014;12.052;2022-09-17T03:21:03;14.50;74.30
19039;DHT22;9652;49.014;12.052;2022-09-17T03:23:31;14.50;74.20
19039;DHT22;9652;49.014;12.052;2022-09-17T03:25:58;14.60;74.10
19039;DHT22;9652;49.014;12.052;2022-09-17T03:28:25;14.50;73.80
19039;DHT22;9652;49.014;12.052;2022-09-17T03:30:53;14.50;73.80
19039;DHT22;9652;49.014;12.052;2022-09-17T03:33:20;14.60;73.80
19039;DHT22;9652;49.014;12.052;2022-09-17T03:35:47;15.00;74.20
19039;DHT22;9652;49.014;12.052;2022-09-17T03:38:15;14.50;73.40
19039;DHT22;9652;49.014;12.052;2022-09-17T03:40:43;14.50;73.30
19039;DHT22;9652;49.014;12.052;2022-09-17T03:43:11;14.60;73.30
19039;DHT22;9652;49.014;12.052;2022-09-17T03:45:38;14.90;73.60
19039;DHT22;9652;49.014;12.052;2022-09-17T03:48:05;14.40;73.40
19039;DHT22;9652;49.014;12.052;2022-09-17T03:50:32;14.50;73.50
19039;DHT22;9652;49.014;12.052;2022-09-17T03:52:59;14.50;73.60
19039;DHT22;9652;49.014;12.052;2022-09-17T03:55:26;14.50;73.40
19039;DHT22;9652;49.014;12.052;2022-09-17T03:57:54;14.50;73.30
19039;DHT22;9652;49.014;12.052;2022-09-17T04:00:21;14.90;73.60
19039;DHT22;9652;49.014;12.052;2022-09-17T04:02:50;14.50;73.30
19039;DHT22;9652;49.014;12.052;2022-09-17T04:05:17;14.50;73.00
19039;DHT22;9652;49.014;12.052;2022-09-17T04:07:44;14.40;72.90
19039;DHT22;9652;49.014;12.052;2022-09-17T04:10:11;14.50;72.90
19039;DHT22;9652;49.014;12.052;2022-09-17T04:12:38;14.40;72.90
19039;DHT22;9652;49.014;12.052;2022-09-17T04:15:08;14.40;72.90
19039;DHT22;9652;49.014;12.052;2022-09-17T04:17:35;14.40;72.90
19039;DHT22;9652;49.014;12.052;2022-09-17T04:20:03;14.50;73.10
19039;DHT22;9652;49.014;12.052;2022-09-17T04:22:31;14.40;73.00
19039;DHT22;9652;49.014;12.052;2022-09-17T04:24:58;14.40;72.90
19039;DHT22;9652;49.014;12.052;2022-09-17T04:27:25;14.40;72.80
19039;DHT22;9652;49.014;12.052;2022-09-17T04:29:52;14.40;72.70
19039;DHT22;9652;49.014;12.052;2022-09-17T04:32:20;14.50;72.80
19039;DHT22;9652;49.014;12.052;2022-09-17T04:34:47;14.40;72.20
19039;DHT22;9652;49.014;12.052;2022-09-17T04:37:14;14.50;72.30
19039;DHT22;9652;49.014;12.052;2022-09-17T04:39:42;14.50;72.40
19039;DHT22;9652;49.014;12.052;2022-09-17T04:42:09;14.40;72.40
19039;DHT22;9652;49.014;12.052;2022-09-17T04:44:36;15.00;72.80
19039;DHT22;9652;49.014;12.052;2022-09-17T04:47:03;14.40;72.40
19039;DHT22;9652;49.014;12.052;2022-09-17T04:49:31;14.40;72.20
19039;DHT22;9652;49.014;12.052;2022-09-17T04:51:58;14.40;72.20
19039;DHT22;9652;49.014;12.052;2022-09-17T04:54:25;14.40;72.20
19039;DHT22;9652;49.014;12.052;2022-09-17T04:56:52;14.30;72.20
19039;DHT22;9652;49.014;12.052;2022-09-17T04:59:20;14.30;72.30
19039;DHT22;9652;49.014;12.052;2022-09-17T05:01:47;14.30;72.10
19039;DHT22;9652;49.014;12.052;2022-09-17T05:04:14;14.30;71.80
19039;DHT22;9652;49.014;12.052;2022-09-17T05:06:43;14.30;71.70
19039;DHT22;9652;49.014;12.052;2022-09-17T05:09:10;14.30;71.90
19039;DHT22;9652;49.014;12.052;2022-09-17T05:11:37;14.30;71.90
19039;DHT22;9652;49.014;12.052;2022-09-17T05:14:04;14.30;71.90
19039;DHT22;9652;49.014;12.052;2022-09-17T05:16:31;14.30;71.90
19039;DHT22;9652;49.014;12.052;2022-09-17T05:18:59;14.30;72.00
19039;DHT22;9652;49.014;12.052;2022-09-17T05:21:26;14.30;72.10
19039;DHT22;9652;49.014;12.052;2022-09-17T05:23:55;14.30;72.10
19039;DHT22;9652;49.014;12.052;2022-09-17T05:26:22;14.30;71.80
19039;DHT22;9652;49.014;12.052;2022-09-17T05:28:49;14.30;71.70
19039;DHT22;9652;49.014;12.052;2022-09-17T05:31:16;14.30;71.70
19039;DHT22;9652;49.014;12.052;2022-09-17T05:33:43;14.30;71.80
19039;DHT22;9652;49.014;12.052;2022-09-17T05:36:10;14.30;71.90
19039;DHT22;9652;49.014;12.052;2022-09-17T05:38:37;14.50;72.10
19039;DHT22;9652;49.014;12.052;2022-09-17T05:41:06;14.30;71.90
19039;DHT22;9652;49.014;12.052;2022-09-17T05:43:33;14.30;71.70
19039;DHT22;9652;49.014;12.052;2022-09-17T05:46:01;14.40;71.60
19039;DHT22;9652;49.014;12.052;2022-09-17T05:48:28;14.40;71.50
19039;DHT22;9652;49.014;12.052;2022-09-17T05:50:56;14.40;71.50
19039;DHT22;9652;49.014;12.052;2022-09-17T05:53:23;14.40;71.20
19039;DHT22;9652;49.014;12.052;2022-09-17T05:55:50;13.90;70.80
19039;DHT22;9652;49.014;12.052;2022-09-17T05:58:23;14.40;71.20
19039;DHT22;9652;49.014;12.052;2022-09-17T06:00:51;14.30;71.10
19039;DHT22;9652;49.014;12.052;2022-09-17T06:03:19;14.40;71.20
19039;DHT22;9652;49.014;12.052;2022-09-17T06:05:52;14.40;71.20
19039;DHT22;9652;49.014;12.052;2022-09-17T06:08:21;14.40;70.90
19039;DHT22;9652;49.014;12.052;2022-09-17T06:10:48;14.40;71.20
19039;DHT22;9652;49.014;12.052;2022-09-17T06:13:15;14.40;71.20
19039;DHT22;9652;49.014;12.052;2022-09-17T06:15:48;14.30;71.10
19039;DHT22;9652;49.014;12.052;2022-09-17T06:18:17;14.40;70.70
19039;DHT22;9652;49.014;12.052;2022-09-17T06:20:51;14.60;71.30
19039;DHT22;9652;49.014;12.052;2022-09-17T06:23:19;14.30;70.80
19039;DHT22;9652;49.014;12.052;2022-09-17T06:25:50;14.40;71.40
19039;DHT22;9652;49.014;12.052;2022-09-17T06:28:19;14.40;71.20
19039;DHT22;9652;49.014;12.052;2022-09-17T06:30:47;14.40;71.30
19039;DHT22;9652;49.014;12.052;2022-09-17T06:33:17;14.40;71.30
19039;DHT22;9652;49.014;12.052;2022-09-17T06:35:44;14.40;71.40
19039;DHT22;9652;49.014;12.052;2022-09-17T06:38:11;14.40;71.40
19039;DHT22;9652;49.014;12.052;2022-09-17T06:40:38;14.40;71.40
19039;DHT22;9652;49.014;12.052;2022-09-17T06:43:05;14.50;71.60
19039;DHT22;9652;49.014;12.052;2022-09-17T06:45:33;14.40;71.60
19039;DHT22;9652;49.014;12.052;2022-09-17T06:48:04;14.50;71.80
19039;DHT22;9652;49.014;12.052;2022-09-17T06:50:31;14.50;71.50
19039;DHT22;9652;49.014;12.052;2022-09-17T06:52:58;14.50;71.60
19039;DHT22;9652;49.014;12.052;2022-09-17T06:55:25;14.50;71.70
19039;DHT22;9652;49.014;12.052;2022-09-17T06:57:53;14.50;71.30
19039;DHT22;9652;49.014;12.052;2022-09-17T07:00:24;14.50;71.50
19039;DHT22;9652;49.014;12.052;2022-09-17T07:02:55;14.40;71.40
19039;DHT22;9652;49.014;12.052;2022-09-17T07:05:25;14.40;71.50
19039;DHT22;9652;49.014;12.052;2022-09-17T07:07:53;15.60;72.30
19039;DHT22;9652;49.014;12.052;2022-09-17T07:10:21;14.30;71.70
19039;DHT22;9652;49.014;12.052;2022-09-17T07:12:48;14.30;71.80
19039;DHT22;9652;49.014;12.052;2022-09-17T07:15:16;14.30;72.10
19039;DHT22;9652;49.014;12.052;2022-09-17T07:17:43;14.30;72.10
19039;DHT22;9652;49.014;12.052;2022-09-17T07:20:11;14.40;72.40
19039;DHT22;9652;49.014;12.052;2022-09-17T07:22:40;14.20;72.60
19039;DHT22;9652;49.014;12.052;2022-09-17T07:25:08;14.30;73.00
19039;DHT22;9652;49.014;12.052;2022-09-17T07:27:35;14.30;73.50
19039;DHT22;9652;49.014;12.052;2022-09-17T07:30:03;14.40;74.10
19039;DHT22;9652;49.014;12.052;2022-09-17T07:32:30;14.30;74.30
19039;DHT22;9652;49.014;12.052;2022-09-17T07:34:57;14.50;74.90
19039;DHT22;9652;49.014;12.052;2022-09-17T07:37:25;14.40;75.10
19039;DHT22;9652;49.014;12.052;2022-09-17T07:39:53;15.20;75.50
19039;DHT22;9652;49.014;12.052;2022-09-17T07:42:20;14.60;74.90
19039;DHT22;9652;49.014;12.052;2022-09-17T07:44:47;14.70;74.90
19039;DHT22;9652;49.014;12.052;2022-09-17T07:47:14;14.80;74.60
19039;DHT22;9652;49.014;12.052;2022-09-17T07:49:41;14.80;74.00
19039;DHT22;9652;49.014;12.052;2022-09-17T07:52:08;14.80;73.80
19039;DHT22;9652;49.014;12.052;2022-09-17T07:54:35;14.90;73.80
19039;DHT22;9652;49.014;12.052;2022-09-17T07:57:04;14.90;73.50
19039;DHT22;9652;49.014;12.052;2022-09-17T07:59:31;14.90;73.20
19039;DHT22;9652;49.014;12.052;2022-09-17T08:01:58;14.90;73.50
19039;DHT22;9652;49.014;12.052;2022-09-17T08:04:25;14.90;74.00
19039;DHT22;9652;49.014;12.052;2022-09-17T08:06:52;14.90;74.10
19039;DHT22;9652;49.014;12.052;2022-09-17T08:09:20;14.90;74.00
19039;DHT22;9652;49.014;12.052;2022-09-17T08:11:48;14.90;74.20
19039;DHT22;9652;49.014;12.052;2022-09-17T08:14:16;14.90;74.20
19039;DHT22;9652;49.014;12.052;2022-09-17T08:16:43;14.90;74.60
19039;DHT22;9652;49.014;12.052;2022-09-17T08:19:11;14.90;74.70
19039;DHT22;9652;49.014;12.052;2022-09-17T08:21:38;14.80;74.60
19039;DHT22;9652;49.014;12.052;2022-09-17T08:24:06;14.80;74.40
19039;DHT22;9652;49.014;12.052;2022-09-17T08:26:33;14.80;74.60
19039;DHT22;9652;49.014;12.052;2022-09-17T08:29:01;14.80;74.60
19039;DHT22;9652;49.014;12.052;2022-09-17T08:31:29;14.70;74.70
19039;DHT22;9652;49.014;12.052;2022-09-17T08:33:57;14.70;74.60
19039;DHT22;9652;49.014;12.052;2022-09-17T08:36:26;14.70;74.90
19039;DHT22;9652;49.014;12.052;2022-09-17T08:38:54;14.70;75.40
19039;DHT22;9652;49.014;12.052;2022-09-17T08:41:27;14.70;75.90
19039;DHT22;9652;49.014;12.052;2022-09-17T08:44:13;14.70;76.20
19039;DHT22;9652;49.014;12.052;2022-09-17T08:46:49;14.80;77.10
19039;DHT22;9652;49.014;12.052;2022-09-17T08:49:27;14.80;77.20
19039;DHT22;9652;49.014;12.052;2022-09-17T08:52:17;14.90;76.90
19039;DHT22;9652;49.014;12.052;2022-09-17T08:55:29;15.00;76.70
19039;DHT22;9652;49.014;12.052;2022-09-17T08:58:36;15.00;76.30
19039;DHT22;9652;49.014;12.052;2022-09-17T09:01:14;15.10;76.10
19039;DHT22;9652;49.014;12.052;2022-09-17T09:04:04;15.30;75.30
19039;DHT22;9652;49.014;12.052;2022-09-17T09:06:49;15.00;75.00
19039;DHT22;9652;49.014;12.052;2022-09-17T09:09:23;15.00;75.20
19039;DHT22;9652;49.014;12.052;2022-09-17T09:12:00;15.00;74.80
19039;DHT22;9652;49.014;12.052;2022-09-17T09:14:34;14.90;74.40
19039;DHT22;9652;49.014;12.052;2022-09-17T09:17:08;14.90;74.40
19039;DHT22;9652;49.014;12.052;2022-09-17T09:19:42;14.80;74.80
19039;DHT22;9652;49.014;12.052;2022-09-17T09:25:18;14.70;75.60
19039;DHT22;9652;49.014;12.052;2022-09-17T09:28:01;14.60;76.30
19039;DHT22;9652;49.014;12.052;2022-09-17T09:30:42;14.60;77.40
19039;DHT22;9652;49.014;12.052;2022-09-17T09:33:25;14.60;78.30
19039;DHT22;9652;49.014;12.052;2022-09-17T09:35:58;14.70;78.90
19039;DHT22;9652;49.014;12.052;2022-09-17T09:38:31;14.70;79.30
19039;DHT22;9652;49.014;12.052;2022-09-17T09:41:06;14.80;79.20
19039;DHT22;9652;49.014;12.052;2022-09-17T09:43:42;14.90;78.80
19039;DHT22;9652;49.014;12.052;2022-09-17T09:46:23;14.90;78.80
19039;DHT22;9652;49.014;12.052;2022-09-17T09:49:07;14.90;78.90
19039;DHT22;9652;49.014;12.052;2022-09-17T09:51:53;14.90;78.50
19039;DHT22;9652;49.014;12.052;2022-09-17T09:54:42;14.90;78.20
19039;DHT22;9652;49.014;12.052;2022-09-17T09:57:29;14.80;78.50
19039;DHT22;9652;49.014;12.052;2022-09-17T10:00:26;14.80;79.00
19039;DHT22;9652;49.014;12.052;2022-09-17T10:03:00;14.80;79.50
19039;DHT22;9652;49.014;12.052;2022-09-17T10:05:32;14.80;79.60
19039;DHT22;9652;49.014;12.052;2022-09-17T10:08:10;14.80;80.30
19039;DHT22;9652;49.014;12.052;2022-09-17T10:10:53;14.80;80.80
19039;DHT22;9652;49.014;12.052;2022-09-17T10:13:22;14.90;80.80
19039;DHT22;9652;49.014;12.052;2022-09-17T10:15:49;14.90;80.10
19039;DHT22;9652;49.014;12.052;2022-09-17T10:18:18;15.00;79.80
19039;DHT22;9652;49.014;12.052;2022-09-17T10:20:51;14.90;79.30
19039;DHT22;9652;49.014;12.052;2022-09-17T10:23:25;14.90;77.80
19039;DHT22;9652;49.014;12.052;2022-09-17T10:25:54;14.90;77.60
19039;DHT22;9652;49.014;12.052;2022-09-17T10:28:34;14.80;78.30
19039;DHT22;9652;49.014;12.052;2022-09-17T10:31:10;14.70;77.40
19039;DHT22;9652;49.014;12.052;2022-09-17T10:33:39;14.70;77.70
19039;DHT22;9652;49.014;12.052;2022-09-17T10:36:36;14.60;78.00
19039;DHT22;9652;49.014;12.052;2022-09-17T10:39:29;14.60;78.10
19039;DHT22;9652;49.014;12.052;2022-09-17T10:42:00;14.50;78.80
19039;DHT22;9652;49.014;12.052;2022-09-17T10:44:29;14.50;79.60
19039;DHT22;9652;49.014;12.052;2022-09-17T10:47:03;14.60;80.80
19039;DHT22;9652;49.014;12.052;2022-09-17T10:49:39;14.70;81.00
19039;DHT22;9652;49.014;12.052;2022-09-17T10:52:11;14.80;81.70
19039;DHT22;9652;49.014;12.052;2022-09-17T10:55:16;14.90;81.80
19039;DHT22;9652;49.014;12.052;2022-09-17T10:58:03;15.20;81.10
19039;DHT22;9652;49.014;12.052;2022-09-17T11:00:51;15.40;81.10
19039;DHT22;9652;49.014;12.052;2022-09-17T11:03:46;15.50;80.80
19039;DHT22;9652;49.014;12.052;2022-09-17T11:06:44;15.70;79.50
19039;DHT22;9652;49.014;12.052;2022-09-17T11:09:39;15.80;79.40
19039;DHT22;9652;49.014;12.052;2022-09-17T11:12:28;16.20;79.00
19039;DHT22;9652;49.014;12.052;2022-09-17T11:15:11;16.10;77.70
19039;DHT22;9652;49.014;12.052;2022-09-17T11:18:01;16.30;77.50
19039;DHT22;9652;49.014;12.052;2022-09-17T11:20:55;16.40;77.40
19039;DHT22;9652;49.014;12.052;2022-09-17T11:23:52;16.50;76.10
19039;DHT22;9652;49.014;12.052;2022-09-17T11:26:39;16.70;75.50
19039;DHT22;9652;49.014;12.052;2022-09-17T11:29:28;16.80;76.10
19039;DHT22;9652;49.014;12.052;2022-09-17T11:32:12;16.90;75.20
19039;DHT22;9652;49.014;12.052;2022-09-17T11:34:53;17.00;75.20
19039;DHT22;9652;49.014;12.052;2022-09-17T11:37:30;17.20;76.10
19039;DHT22;9652;49.014;12.052;2022-09-17T11:40:07;17.30;75.60
19039;DHT22;9652;49.014;12.052;2022-09-17T11:42:42;17.40;74.90
19039;DHT22;9652;49.014;12.052;2022-09-17T11:45:17;17.60;75.10
19039;DHT22;9652;49.014;12.052;2022-09-17T11:47:52;17.60;73.60
19039;DHT22;9652;49.014;12.052;2022-09-17T11:50:26;17.70;73.00
19039;DHT22;9652;49.014;12.052;2022-09-17T11:53:04;17.80;71.60
19039;DHT22;9652;49.014;12.052;2022-09-17T11:55:41;17.80;70.80
19039;DHT22;9652;49.014;12.052;2022-09-17T11:58:17;17.80;71.90
19039;DHT22;9652;49.014;12.052;2022-09-17T12:00:57;17.90;71.60
19039;DHT22;9652;49.014;12.052;2022-09-17T12:03:31;17.90;69.40
19039;DHT22;9652;49.014;12.052;2022-09-17T12:06:06;17.90;69.80
19039;DHT22;9652;49.014;12.052;2022-09-17T12:08:41;18.00;69.50
19039;DHT22;9652;49.014;12.052;2022-09-17T12:11:18;18.10;70.60
19039;DHT22;9652;49.014;12.052;2022-09-17T12:13:51;18.30;71.00
19039;DHT22;9652;49.014;12.052;2022-09-17T12:16:24;18.50;70.80
19039;DHT22;9652;49.014;12.052;2022-09-17T12:18:58;18.60;69.90
19039;DHT22;9652;49.014;12.052;2022-09-17T12:21:32;18.80;69.20
19039;DHT22;9652;49.014;12.052;2022-09-17T12:24:10;18.90;69.50
19039;DHT22;9652;49.014;12.052;2022-09-17T12:26:56;19.10;66.70
19039;DHT22;9652;49.014;12.052;2022-09-17T12:29:47;19.20;66.00
19039;DHT22;9652;49.014;12.052;2022-09-17T12:32:46;19.20;65.10
19039;DHT22;9652;49.014;12.052;2022-09-17T12:39:32;19.40;65.30
19039;DHT22;9652;49.014;12.052;2022-09-17T12:42:33;19.50;65.20
19039;DHT22;9652;49.014;12.052;2022-09-17T12:48:38;19.60;63.90
19039;DHT22;9652;49.014;12.052;2022-09-17T12:51:42;19.60;62.70
19039;DHT22;9652;49.014;12.052;2022-09-17T12:54:23;19.60;62.70
19039;DHT22;9652;49.014;12.052;2022-09-17T12:57:23;19.60;62.70
19039;DHT22;9652;49.014;12.052;2022-09-17T13:00:01;19.50;62.10
19039;DHT22;9652;49.014;12.052;2022-09-17T13:02:36;19.50;62.50
19039;DHT22;9652;49.014;12.052;2022-09-17T13:05:33;19.50;61.80
19039;DHT22;9652;49.014;12.052;2022-09-17T13:08:38;19.50;60.90
19039;DHT22;9652;49.014;12.052;2022-09-17T13:11:33;19.50;60.40
19039;DHT22;9652;49.014;12.052;2022-09-17T13:14:23;19.50;60.10
19039;DHT22;9652;49.014;12.052;2022-09-17T13:17:00;19.50;60.40
19039;DHT22;9652;49.014;12.052;2022-09-17T13:19:37;19.50;60.40
19039;DHT22;9652;49.014;12.052;2022-09-17T13:22:15;19.40;60.10
19039;DHT22;9652;49.014;12.052;2022-09-17T13:24:44;19.30;60.60
19039;DHT22;9652;49.014;12.052;2022-09-17T13:27:20;19.30;60.70
19039;DHT22;9652;49.014;12.052;2022-09-17T13:29:57;19.30;60.00
19039;DHT22;9652;49.014;12.052;2022-09-17T13:32:45;19.30;60.40
19039;DHT22;9652;49.014;12.052;2022-09-17T13:35:48;19.20;58.30
19039;DHT22;9652;49.014;12.052;2022-09-17T13:38:19;19.20;58.80
19039;DHT22;9652;49.014;12.052;2022-09-17T13:40:48;19.10;59.70
19039;DHT22;9652;49.014;12.052;2022-09-17T13:43:17;19.00;60.00
19039;DHT22;9652;49.014;12.052;2022-09-17T13:46:10;19.00;60.20
19039;DHT22;9652;49.014;12.052;2022-09-17T13:48:55;19.00;58.90
19039;DHT22;9652;49.014;12.052;2022-09-17T13:51:44;19.00;59.90
19039;DHT22;9652;49.014;12.052;2022-09-17T13:54:20;19.10;59.10
19039;DHT22;9652;49.014;12.052;2022-09-17T13:57:08;19.10;60.40
19039;DHT22;9652;49.014;12.052;2022-09-17T13:59:51;19.20;57.50
19039;DHT22;9652;49.014;12.052;2022-09-17T14:02:35;19.30;59.00
19039;DHT22;9652;49.014;12.052;2022-09-17T14:05:34;19.40;58.40
19039;DHT22;9652;49.014;12.052;2022-09-17T14:08:11;19.50;59.10
19039;DHT22;9652;49.014;12.052;2022-09-17T14:10:58;19.60;59.80
19039;DHT22;9652;49.014;12.052;2022-09-17T14:13:42;19.80;61.00
19039;DHT22;9652;49.014;12.052;2022-09-17T14:16:30;20.00;59.80
19039;DHT22;9652;49.014;12.052;2022-09-17T14:19:16;20.10;59.20
19039;DHT22;9652;49.014;12.052;2022-09-17T14:22:02;20.30;59.50
19039;DHT22;9652;49.014;12.052;2022-09-17T14:24:46;20.30;58.90
19039;DHT22;9652;49.014;12.052;2022-09-17T14:27:45;20.30;58.10
19039;DHT22;9652;49.014;12.052;2022-09-17T14:30:20;20.30;56.60
19039;DHT22;9652;49.014;12.052;2022-09-17T14:33:01;20.10;56.80
19039;DHT22;9652;49.014;12.052;2022-09-17T14:35:34;20.00;55.60
19039;DHT22;9652;49.014;12.052;2022-09-17T14:38:10;19.80;56.30
19039;DHT22;9652;49.014;12.052;2022-09-17T14:40:43;19.70;55.50
19039;DHT22;9652;49.014;12.052;2022-09-17T14:43:18;19.50;55.70
19039;DHT22;9652;49.014;12.052;2022-09-17T14:45:51;19.40;55.10
19039;DHT22;9652;49.014;12.052;2022-09-17T14:48:26;19.20;56.30
19039;DHT22;9652;49.014;12.052;2022-09-17T14:51:24;19.10;56.40
19039;DHT22;9652;49.014;12.052;2022-09-17T14:56:57;19.00;56.60
19039;DHT22;9652;49.014;12.052;2022-09-17T14:59:40;19.00;57.40
19039;DHT22;9652;49.014;12.052;2022-09-17T15:02:32;19.00;57.30
19039;DHT22;9652;49.014;12.052;2022-09-17T15:05:15;19.00;56.70
19039;DHT22;9652;49.014;12.052;2022-09-17T15:07:44;19.00;57.10
19039;DHT22;9652;49.014;12.052;2022-09-17T15:10:14;19.00;56.90
19039;DHT22;9652;49.014;12.052;2022-09-17T15:12:44;18.90;56.90
19039;DHT22;9652;49.014;12.052;2022-09-17T15:15:22;18.70;58.80
19039;DHT22;9652;49.014;12.052;2022-09-17T15:17:52;18.50;59.20
19039;DHT22;9652;49.014;12.052;2022-09-17T15:20:21;18.10;60.00
19039;DHT22;9652;49.014;12.052;2022-09-17T15:22:55;17.60;60.90
19039;DHT22;9652;49.014;12.052;2022-09-17T15:25:29;17.10;63.10
19039;DHT22;9652;49.014;12.052;2022-09-17T15:27:58;16.60;64.50
19039;DHT22;9652;49.014;12.052;2022-09-17T15:30:31;16.30;66.10
19039;DHT22;9652;49.014;12.052;2022-09-17T15:32:58;15.90;67.60
19039;DHT22;9652;49.014;12.052;2022-09-17T15:35:27;15.70;68.90
19039;DHT22;9652;49.014;12.052;2022-09-17T15:37:56;15.50;69.90
19039;DHT22;9652;49.014;12.052;2022-09-17T15:40:27;15.40;70.80
19039;DHT22;9652;49.014;12.052;2022-09-17T15:43:03;15.30;72.10
19039;DHT22;9652;49.014;12.052;2022-09-17T15:45:33;15.10;73.30
19039;DHT22;9652;49.014;12.052;2022-09-17T15:48:04;15.10;74.10
19039;DHT22;9652;49.014;12.052;2022-09-17T15:50:33;15.10;74.60
19039;DHT22;9652;49.014;12.052;2022-09-17T15:53:12;15.10;75.00
19039;DHT22;9652;49.014;12.052;2022-09-17T15:55:42;15.00;75.40
19039;DHT22;9652;49.014;12.052;2022-09-17T15:58:22;15.00;74.70
19039;DHT22;9652;49.014;12.052;2022-09-17T16:09:58;14.70;76.00
19039;DHT22;9652;49.014;12.052;2022-09-17T16:12:26;14.70;75.70
19039;DHT22;9652;49.014;12.052;2022-09-17T16:14:55;14.60;75.90
19039;DHT22;9652;49.014;12.052;2022-09-17T16:17:28;14.50;76.10
19039;DHT22;9652;49.014;12.052;2022-09-17T16:20:12;14.50;76.40
19039;DHT22;9652;49.014;12.052;2022-09-17T16:22:42;14.40;76.50
19039;DHT22;9652;49.014;12.052;2022-09-17T16:25:11;14.40;76.10
19039;DHT22;9652;49.014;12.052;2022-09-17T16:27:47;14.30;76.20
19039;DHT22;9652;49.014;12.052;2022-09-17T16:30:18;14.20;76.50
19039;DHT22;9652;49.014;12.052;2022-09-17T16:32:46;14.10;76.50
19039;DHT22;9652;49.014;12.052;2022-09-17T16:35:16;14.10;76.80
19039;DHT22;9652;49.014;12.052;2022-09-17T16:37:47;14.10;77.20
19039;DHT22;9652;49.014;12.052;2022-09-17T16:40:15;14.00;77.30
19039;DHT22;9652;49.014;12.052;2022-09-17T16:42:43;14.00;77.30
19039;DHT22;9652;49.014;12.052;2022-09-17T16:45:10;13.90;77.30